Overview Statistics Trail Chart Weather Telemetry Raw packets
 

This is the latest recevied weather packets stored in our database for station/object WX5RP. If no packets are shown the sender has not sent any weather packets the latest 10 day(s).

<< 49 50 51 52 53 54 55 >>
Time Temp. Humidity Pressure Rain* Wind** Luminosity Snow
1777226115 10° C 27% 1008.4 hPa 0 mm - 875 W/m² -
1777225515 10° C 30% 1008.4 hPa 0 mm - 842 W/m² -
1777224915 9.44° C 27% 1008.7 hPa 0 mm - 811 W/m² -
1777224315 8.89° C 28% 1008.7 hPa 0 mm - 786 W/m² -
1777223715 8.33° C 29% 1008.7 hPa 0 mm - 764 W/m² -
1777223116 8.33° C 30% 1008.8 hPa 0 mm - 740 W/m² -
1777222515 8.33° C 29% 1009 hPa 0 mm - 712 W/m² -
1777221917 8.33° C 30% 1009 hPa 0 mm - 688 W/m² -
1777221317 7.22° C 30% 1009.3 hPa 0 mm - 668 W/m² -
1777220717 7.22° C 30% 1009.1 hPa 0 mm - 641 W/m² -
1777220117 6.67° C 34% 1008.8 hPa 0 mm - 695 W/m² -
1777219517 6.11° C 34% 1008.2 hPa 0 mm - 403 W/m² -
1777218917 5.56° C 39% 1008.1 hPa 0 mm - 361 W/m² -
1777218317 5.56° C 39% 1008.1 hPa 0 mm - 453 W/m² -
1777217717 5° C 42% 1008.1 hPa 0 mm - 474 W/m² -
1777217117 4.44° C 43% 1008.3 hPa 0 mm - 430 W/m² -
1777216517 3.33° C 44% 1008.3 hPa 0 mm - 403 W/m² -
1777215917 2.78° C 46% 1007.9 hPa 0 mm - 302 W/m² -
1777215316 2.22° C 47% 1008.2 hPa 0 mm - 339 W/m² -
1777214716 1.67° C 49% 1008.2 hPa 0 mm - 303 W/m² -
1777214117 0.56° C 53% 1008.6 hPa 0 mm - 275 W/m² -
1777213517 -1.11° C 61% 1009 hPa 0 mm - 157 W/m² -
1777212919 -2.78° C 68% 1008.7 hPa 0 mm - 148 W/m² -
1777212316 -3.89° C 70% 1007.6 hPa 0 mm - 115 W/m² -
1777211716 -4.44° C 70% 1007.6 hPa 0 mm - 43 W/m² -

* Rain latest hour (hover to see other rain measurements)
** Current wind speed in m/s (hover to see current wind gust speed)